Time;durP1;ratioP1;P1;durP2;ratioP2;P2;SDS_P1;SDS_P2;PMS_P1;PMS_P2;Temp;Humidity;BMP_temperature;BMP_pressure;BME280_temperature;BME280_humidity;BME280_pressure;Samples;Min_cycle;Max_cycle;Signal;HPM_P1;HPM_P2
2022/09/16 00:00:23;;;;;;;11.50;1.90;;;-31.70;99.90;;;;;;5077236;28;20218;-72
2022/09/16 00:02:52;;;;;;;2.33;1.40;;;-27.30;99.90;;;;;;5079567;28;20198;-74
2022/09/16 00:05:18;;;;;;;8.93;1.70;;;-26.00;99.90;;;;;;5078782;28;20247;-70
2022/09/16 00:07:44;;;;;;;5.30;1.90;;;-24.90;99.90;;;;;;5082668;28;20186;-73
2022/09/16 00:10:10;;;;;;;10.10;2.23;;;-26.70;99.90;;;;;;5079970;28;20516;-72
2022/09/16 00:12:36;;;;;;;2.47;1.23;;;-25.40;99.90;;;;;;5078169;28;20273;-70
2022/09/16 00:15:03;;;;;;;2.50;1.20;;;-26.60;99.90;;;;;;5081947;28;20247;-71
2022/09/16 00:17:30;;;;;;;7.30;1.90;;;-31.30;99.80;;;;;;5079850;28;20312;-70
2022/09/16 00:19:56;;;;;;;7.07;2.83;;;-29.60;99.90;;;;;;5076916;28;20232;-76
2022/09/16 00:22:22;;;;;;;5.47;1.43;;;-31.00;99.90;;;;;;5076673;28;20183;-75
2022/09/16 00:24:48;;;;;;;5.83;1.83;;;-28.30;99.90;;;;;;5076169;28;20190;-71
2022/09/16 00:27:14;;;;;;;3.93;1.63;;;-32.30;99.90;;;;;;5075712;28;20488;-75
2022/09/16 00:29:40;;;;;;;8.87;2.10;;;-29.50;99.90;;;;;;5076298;28;20206;-72
2022/09/16 00:32:06;;;;;;;5.23;1.80;;;-23.90;99.90;;;;;;5075465;28;20187;-75
2022/09/16 00:34:32;;;;;;;6.77;1.83;;;-26.70;99.90;;;;;;5080952;28;20186;-74
2022/09/16 00:36:58;;;;;;;2.20;1.40;;;-22.60;99.90;;;;;;5082651;28;20478;-70
2022/09/16 00:39:24;;;;;;;5.60;2.47;;;-30.90;99.90;;;;;;5085202;28;20181;-72
2022/09/16 00:41:50;;;;;;;2.47;1.57;;;-27.70;99.90;;;;;;5079032;28;20182;-72
2022/09/16 00:44:53;;;;;;;5.07;1.63;;;-31.40;99.90;;;;;;5076242;28;20548;-75
2022/09/16 00:47:48;;;;;;;11.17;2.10;;;-37.20;99.90;;;;;;5077569;28;20198;-72
2022/09/16 00:50:47;;;;;;;5.47;1.50;;;-31.60;99.90;;;;;;5081871;28;20221;-72
2022/09/16 00:53:26;;;;;;;7.20;1.80;;;-24.10;99.90;;;;;;5080359;28;20186;-69
2022/09/16 00:55:55;;;;;;;4.73;1.60;;;-21.90;99.90;;;;;;5083616;28;20659;-70
2022/09/16 00:58:49;;;;;;;3.53;1.90;;;-29.20;99.90;;;;;;5078337;28;20191;-73
2022/09/16 01:01:15;;;;;;;2.57;1.73;;;-25.00;99.90;;;;;;5076019;28;20194;-73
2022/09/16 01:04:03;;;;;;;4.73;2.83;;;-24.60;99.90;;;;;;5082210;28;20219;-71
2022/09/16 01:06:31;;;;;;;9.40;2.17;;;-22.00;99.90;;;;;;5078854;28;20175;-72
2022/09/16 01:08:58;;;;;;;5.23;2.00;;;-27.10;99.90;;;;;;5081709;28;20179;-75
2022/09/16 01:11:24;;;;;;;3.70;1.63;;;-31.30;99.90;;;;;;5081984;28;20206;-75
2022/09/16 01:13:51;;;;;;;6.50;1.67;;;-27.80;99.90;;;;;;5075833;28;20179;-72
2022/09/16 01:16:19;;;;;;;1.93;1.20;;;-30.30;99.90;;;;;;5075743;28;20240;-72
2022/09/16 01:18:54;;;;;;;3.17;1.97;;;-35.20;99.90;;;;;;5082139;28;20191;-72
2022/09/16 01:21:43;;;;;;;6.57;2.13;;;-30.20;99.90;;;;;;5075570;28;20640;-72
2022/09/16 01:24:27;;;;;;;6.10;1.50;;;-35.20;99.90;;;;;;5084729;28;20182;-72
2022/09/16 01:27:17;;;;;;;5.33;1.60;;;-38.70;99.90;;;;;;5078814;28;20210;-73
2022/09/16 01:30:25;;;;;;;2.90;1.57;;;-31.60;99.90;;;;;;5075367;28;20214;-71
2022/09/16 01:32:56;;;;;;;5.47;1.77;;;-32.20;99.90;;;;;;5080177;28;20267;-69
2022/09/16 01:35:36;;;;;;;4.03;1.70;;;-34.10;99.90;;;;;;5078862;28;20488;-72
2022/09/16 01:38:05;;;;;;;9.00;2.13;;;-28.50;99.90;;;;;;5076449;28;20167;-72
2022/09/16 01:40:56;;;;;;;3.87;1.90;;;-35.80;99.90;;;;;;5081438;28;20653;-71
2022/09/16 01:43:42;;;;;;;7.47;2.10;;;-33.80;99.90;;;;;;5084541;28;20183;-72
2022/09/16 01:46:08;;;;;;;6.33;2.33;;;-32.10;99.90;;;;;;5076260;28;20186;-75
2022/09/16 01:48:42;;;;;;;3.10;1.77;;;-31.20;99.90;;;;;;5079708;28;20179;-71
2022/09/16 01:51:23;;;;;;;4.37;1.63;;;-29.20;99.90;;;;;;5074933;28;20614;-72
2022/09/16 01:54:10;;;;;;;9.70;2.20;;;-31.10;99.90;;;;;;5080952;28;20410;-72
2022/09/16 01:56:47;;;;;;;5.27;2.00;;;-35.00;99.90;;;;;;5079780;28;20198;-72
2022/09/16 01:59:20;;;;;;;3.53;1.67;;;-35.60;99.90;;;;;;5079966;28;20202;-72
2022/09/16 02:01:59;;;;;;;8.40;2.40;;;-32.20;99.90;;;;;;5082039;28;20193;-73
2022/09/16 02:04:33;;;;;;;6.53;1.93;;;-28.20;99.90;;;;;;5078329;28;20265;-72
2022/09/16 02:07:03;;;;;;;4.63;1.53;;;-31.50;99.90;;;;;;5074880;28;20301;-74
2022/09/16 02:09:36;;;;;;;4.03;1.60;;;-37.30;99.90;;;;;;5073885;28;20294;-69
2022/09/16 02:12:08;;;;;;;5.00;1.30;;;-30.60;99.90;;;;;;5075129;28;20305;-72
2022/09/16 02:14:40;;;;;;;13.37;2.23;;;-35.10;99.90;;;;;;5075133;28;20225;-72
2022/09/16 02:17:09;;;;;;;3.57;1.23;;;-36.10;99.90;;;;;;5075098;28;20183;-66
2022/09/16 02:19:40;;;;;;;4.60;1.60;;;-34.70;99.90;;;;;;5078998;28;20581;-71
2022/09/16 02:22:16;;;;;;;2.57;1.77;;;-32.70;99.90;;;;;;5085236;28;20193;-72
2022/09/16 02:24:45;;;;;;;9.43;1.30;;;-34.40;99.90;;;;;;5083069;28;20211;-71
2022/09/16 02:27:16;;;;;;;8.27;2.13;;;-38.70;99.90;;;;;;5080593;28;20187;-75
2022/09/16 02:29:54;;;;;;;4.23;2.30;;;-30.20;99.90;;;;;;5074862;28;20276;-67
2022/09/16 02:32:23;;;;;;;2.73;1.87;;;-29.20;99.90;;;;;;5074763;28;20262;-73
2022/09/16 02:34:50;;;;;;;9.10;2.03;;;-28.90;99.90;;;;;;5081244;28;20175;-73
2022/09/16 02:37:38;;;;;;;3.23;2.30;;;-27.60;99.90;;;;;;5078822;28;20250;-74
2022/09/16 02:40:09;;;;;;;9.80;1.73;;;-27.30;99.90;;;;;;5076493;28;20190;-71
2022/09/16 02:42:35;;;;;;;6.23;2.23;;;-29.80;99.90;;;;;;5084706;28;20180;-76
2022/09/16 02:45:02;;;;;;;3.10;1.33;;;-23.70;99.90;;;;;;5078622;28;20183;-73
2022/09/16 02:47:36;;;;;;;3.10;1.37;;;-26.40;99.90;;;;;;5075311;28;20179;-70
2022/09/16 02:50:26;;;;;;;10.60;1.70;;;-26.80;99.90;;;;;;5083037;28;20278;-74
2022/09/16 02:52:59;;;;;;;9.47;1.60;;;-25.90;99.90;;;;;;5078082;28;20236;-74
2022/09/16 02:55:53;;;;;;;2.27;1.50;;;-32.00;99.90;;;;;;5088243;28;20220;-73
2022/09/16 02:58:19;;;;;;;5.60;1.73;;;-29.80;99.90;;;;;;5085349;28;20175;-67
2022/09/16 03:00:48;;;;;;;2.23;0.90;;;-29.60;99.90;;;;;;5078144;28;20198;-70
2022/09/16 03:03:14;;;;;;;3.37;1.40;;;-33.30;99.90;;;;;;5078035;28;20256;-73
2022/09/16 03:05:59;;;;;;;3.00;1.30;;;-33.50;99.90;;;;;;5086364;28;20187;-72
2022/09/16 03:08:24;;;;;;;5.53;1.33;;;-30.20;99.90;;;;;;5077833;28;20182;-69
2022/09/16 03:10:51;;;;;;;5.77;2.17;;;-33.50;99.90;;;;;;5084879;28;20561;-68
2022/09/16 03:13:29;;;;;;;3.63;1.27;;;-29.10;99.90;;;;;;5083761;28;20472;-66
2022/09/16 03:16:34;;;;;;;4.03;1.60;;;-29.50;99.90;;;;;;5078131;28;20179;-69
2022/09/16 03:19:19;;;;;;;3.07;1.70;;;-32.90;99.90;;;;;;5083952;28;20655;-66
2022/09/16 03:21:45;;;;;;;3.83;1.27;;;-28.30;99.90;;;;;;5084103;28;20191;-68
2022/09/16 03:24:18;;;;;;;5.00;1.90;;;-28.40;99.90;;;;;;5077124;28;20542;-69
2022/09/16 03:27:07;;;;;;;2.60;1.60;;;-31.30;99.90;;;;;;5084026;28;20198;-73
2022/09/16 03:30:00;;;;;;;2.20;0.90;;;-30.50;99.90;;;;;;5085798;28;20198;-67
2022/09/16 03:32:42;;;;;;;3.93;1.70;;;-30.80;99.90;;;;;;5085425;28;20278;-68
2022/09/16 03:35:31;;;;;;;5.50;1.50;;;-31.00;99.90;;;;;;5083698;28;20182;-73
2022/09/16 03:38:00;;;;;;;1.70;1.27;;;-31.10;99.90;;;;;;5077178;28;20191;-76
2022/09/16 03:40:28;;;;;;;2.83;1.60;;;-34.90;99.90;;;;;;5082694;28;20238;-77
2022/09/16 03:42:56;;;;;;;5.37;1.50;;;-28.80;99.90;;;;;;5077851;28;20217;-71
2022/09/16 03:45:22;;;;;;;3.47;1.10;;;-34.00;99.90;;;;;;5080915;28;20597;-67
2022/09/16 03:47:49;;;;;;;3.17;1.40;;;-33.90;99.90;;;;;;5082681;28;20187;-68
2022/09/16 03:50:16;;;;;;;4.20;1.30;;;-36.40;99.90;;;;;;5083507;28;20644;-68
2022/09/16 03:52:42;;;;;;;9.20;1.73;;;-27.40;99.90;;;;;;5082054;28;20206;-73
2022/09/16 03:55:09;;;;;;;3.80;1.20;;;-27.40;99.90;;;;;;5077419;28;20175;-75
2022/09/16 03:57:35;;;;;;;2.90;1.33;;;-30.00;99.90;;;;;;5077380;28;20201;-74
2022/09/16 04:00:02;;;;;;;3.83;1.87;;;-27.50;99.90;;;;;;5079054;28;20194;-72
2022/09/16 04:02:28;;;;;;;6.37;2.10;;;-26.00;99.90;;;;;;5077504;28;20176;-70
2022/09/16 04:04:53;;;;;;;1.37;1.00;;;-28.30;99.90;;;;;;5082733;28;20245;-70
2022/09/16 04:07:19;;;;;;;1.30;1.20;;;-35.50;99.90;;;;;;5077325;28;20251;-69
2022/09/16 04:09:45;;;;;;;8.43;2.20;;;-31.20;99.90;;;;;;5083988;28;20600;-69
2022/09/16 04:12:10;;;;;;;2.00;1.30;;;-32.50;99.90;;;;;;5083724;28;20574;-77
2022/09/16 04:14:36;;;;;;;5.20;1.53;;;-28.60;99.90;;;;;;5086288;28;20179;-72
2022/09/16 04:17:02;;;;;;;6.13;1.87;;;-29.90;99.90;;;;;;5079914;28;20206;-78
2022/09/16 04:19:28;;;;;;;4.93;1.50;;;-24.40;99.90;;;;;;5076447;28;20601;-73
2022/09/16 04:21:54;;;;;;;3.47;1.63;;;-26.70;99.90;;;;;;5076689;28;20191;-71
2022/09/16 04:24:20;;;;;;;3.70;1.10;;;-30.00;99.90;;;;;;5079965;28;20555;-73
2022/09/16 04:26:45;;;;;;;2.73;1.10;;;-30.20;99.90;;;;;;5083174;28;20528;-73
2022/09/16 04:29:11;;;;;;;5.73;1.43;;;-30.90;99.90;;;;;;5081100;28;20195;-73
2022/09/16 04:31:37;;;;;;;3.53;1.00;;;-31.90;99.90;;;;;;5085195;28;20182;-71
2022/09/16 04:34:03;;;;;;;9.43;2.60;;;-31.90;99.90;;;;;;5079467;28;20179;-75
2022/09/16 04:36:29;;;;;;;2.77;1.60;;;-27.50;99.90;;;;;;5076354;28;20197;-73
2022/09/16 04:38:55;;;;;;;5.23;1.23;;;-27.70;99.90;;;;;;5083331;28;20183;-72
2022/09/16 04:41:23;;;;;;;3.13;1.30;;;-26.80;99.90;;;;;;5075312;28;20233;-71
2022/09/16 04:43:57;;;;;;;13.43;1.70;;;-30.50;99.90;;;;;;5085911;28;20217;-72
2022/09/16 04:46:25;;;;;;;3.23;1.83;;;-30.90;99.90;;;;;;5077264;28;20167;-72
2022/09/16 04:48:52;;;;;;;3.83;0.70;;;-31.40;99.90;;;;;;5083237;28;20493;-68
2022/09/16 04:51:19;;;;;;;5.67;1.50;;;-30.80;99.90;;;;;;5076340;28;20214;-73
2022/09/16 04:53:46;;;;;;;4.00;1.27;;;-30.90;99.90;;;;;;5076329;28;20456;-71
2022/09/16 04:56:14;;;;;;;7.73;2.67;;;-28.70;99.90;;;;;;5079868;28;20174;-76
2022/09/16 04:58:41;;;;;;;7.33;1.73;;;-31.70;99.90;;;;;;5074807;28;20211;-75
2022/09/16 05:01:12;;;;;;;3.93;1.27;;;-25.90;99.90;;;;;;5080888;28;20197;-75
2022/09/16 05:03:42;;;;;;;1.93;1.10;;;-25.60;99.90;;;;;;5081548;28;20475;-73
2022/09/16 05:06:11;;;;;;;5.37;2.00;;;-26.50;99.90;;;;;;5076138;28;20247;-73
2022/09/16 05:08:37;;;;;;;10.43;2.60;;;-27.80;99.90;;;;;;5079195;28;20178;-74
2022/09/16 05:11:07;;;;;;;1.73;1.23;;;-26.50;99.90;;;;;;5080692;28;20207;-76
2022/09/16 05:13:33;;;;;;;3.07;1.43;;;-27.00;99.90;;;;;;5079998;28;20171;-77
2022/09/16 05:16:14;;;;;;;5.30;1.80;;;-27.80;99.90;;;;;;5076411;28;20186;-73
2022/09/16 05:18:41;;;;;;;3.57;2.00;;;-26.90;99.90;;;;;;5085660;28;20167;-68
2022/09/16 05:21:09;;;;;;;5.90;1.60;;;-32.10;99.90;;;;;;5081863;28;20246;-75
2022/09/16 05:23:36;;;;;;;5.00;1.57;;;-28.30;99.90;;;;;;5078307;28;20256;-68
2022/09/16 05:26:11;;;;;;;9.20;2.07;;;-28.10;99.90;;;;;;5079882;28;20214;-71
2022/09/16 05:28:38;;;;;;;8.83;2.13;;;-27.80;99.90;;;;;;5075459;28;20824;-73
2022/09/16 05:31:09;;;;;;;1.83;1.30;;;-30.50;99.90;;;;;;5081006;28;20209;-75
2022/09/16 05:33:35;;;;;;;5.97;1.10;;;-29.10;99.90;;;;;;5082637;28;20179;-72
2022/09/16 05:36:13;;;;;;;7.83;2.00;;;-30.80;99.90;;;;;;5075965;28;20186;-69
2022/09/16 05:38:39;;;;;;;5.90;1.93;;;-29.20;99.90;;;;;;5081602;28;20175;-70
2022/09/16 05:41:05;;;;;;;11.10;1.90;;;-30.70;99.90;;;;;;5079945;28;20275;-73
2022/09/16 05:43:32;;;;;;;12.70;1.93;;;-30.80;99.90;;;;;;5075952;28;20606;-66
2022/09/16 05:45:58;;;;;;;1.73;1.17;;;-29.60;99.90;;;;;;5075625;28;20210;-73
2022/09/16 05:48:24;;;;;;;8.03;2.30;;;-32.90;99.90;;;;;;5075509;28;20472;-67
2022/09/16 05:50:51;;;;;;;5.00;1.70;;;-33.10;99.90;;;;;;5074805;28;20264;-69
2022/09/16 05:53:17;;;;;;;3.97;1.27;;;-28.40;99.90;;;;;;5075809;28;20180;-77
2022/09/16 05:56:03;;;;;;;2.70;1.63;;;-28.10;99.90;;;;;;5075112;28;20281;-65
2022/09/16 05:58:31;;;;;;;10.17;2.37;;;-28.20;99.90;;;;;;5075115;28;20258;-68
2022/09/16 06:01:07;;;;;;;4.60;1.70;;;-28.20;99.90;;;;;;5083810;28;20204;-74
2022/09/16 06:03:35;;;;;;;7.27;3.03;;;-26.70;99.90;;;;;;5081143;28;20189;-75
2022/09/16 06:06:06;;;;;;;6.20;1.97;;;-30.10;99.90;;;;;;5084825;28;20196;-72
2022/09/16 06:08:34;;;;;;;3.50;2.20;;;-27.40;99.90;;;;;;5081818;28;20178;-74
2022/09/16 06:11:05;;;;;;;8.27;1.97;;;-31.00;99.90;;;;;;5081951;28;20292;-73
2022/09/16 06:13:30;;;;;;;6.20;1.93;;;-28.40;99.90;;;;;;5075420;28;20174;-71
2022/09/16 06:15:56;;;;;;;6.73;1.90;;;-31.00;99.90;;;;;;5081693;28;20186;-76
2022/09/16 06:18:24;;;;;;;10.00;2.33;;;-32.60;99.90;;;;;;5077626;28;20185;-71
2022/09/16 06:20:50;;;;;;;9.40;2.13;;;-29.80;99.90;;;;;;5084055;28;20245;-68
2022/09/16 06:23:16;;;;;;;9.73;2.47;;;-35.50;99.90;;;;;;5080330;28;20179;-72
2022/09/16 06:25:43;;;;;;;6.60;1.83;;;-38.10;99.90;;;;;;5090081;28;20253;-72
2022/09/16 06:28:10;;;;;;;4.37;1.80;;;-30.90;99.90;;;;;;5078851;28;20217;-71
2022/09/16 06:30:36;;;;;;;4.40;1.20;;;-25.80;99.90;;;;;;5078765;28;20209;-67
2022/09/16 06:33:03;;;;;;;4.07;2.07;;;-25.50;99.90;;;;;;5082704;28;20594;-66
2022/09/16 06:35:33;;;;;;;2.97;1.67;;;-29.60;99.90;;;;;;5089155;28;20212;-70
2022/09/16 06:38:00;;;;;;;4.03;1.57;;;-28.60;99.90;;;;;;5090456;28;20584;-69
2022/09/16 06:40:26;;;;;;;4.73;1.27;;;-29.80;99.90;;;;;;5085958;28;20179;-75
2022/09/16 06:42:53;;;;;;;6.23;2.03;;;-29.80;99.90;;;;;;5078621;28;20213;-76
2022/09/16 06:45:20;;;;;;;6.73;1.60;;;-25.40;99.90;;;;;;5083780;28;20209;-72
2022/09/16 06:47:46;;;;;;;6.27;1.23;;;-26.90;99.90;;;;;;5082786;28;20219;-74
2022/09/16 06:50:11;;;;;;;2.70;1.30;;;-25.50;99.90;;;;;;5083596;28;20202;-68
2022/09/16 06:52:37;;;;;;;5.30;1.70;;;-27.00;99.90;;;;;;5094537;28;20190;-75
2022/09/16 06:55:03;;;;;;;2.93;1.20;;;-29.70;99.90;;;;;;5084578;28;20182;-73
2022/09/16 06:57:30;;;;;;;2.87;1.20;;;-31.50;99.90;;;;;;5087754;28;20181;-70
2022/09/16 06:59:55;;;;;;;3.17;1.97;;;-33.80;99.90;;;;;;5077748;28;20199;-66
2022/09/16 07:02:22;;;;;;;3.07;1.33;;;-31.90;99.90;;;;;;5081328;28;20206;-68
2022/09/16 07:04:48;;;;;;;6.23;1.87;;;-30.80;99.90;;;;;;5078113;28;20269;-72
2022/09/16 07:07:14;;;;;;;3.63;1.80;;;-35.60;99.90;;;;;;5082868;28;20522;-74
2022/09/16 07:09:40;;;;;;;3.53;1.87;;;-30.60;99.90;;;;;;5077695;28;20629;-74
2022/09/16 07:12:06;;;;;;;8.57;2.23;;;-26.50;99.90;;;;;;5084663;28;20189;-68
2022/09/16 07:14:33;;;;;;;3.23;1.50;;;-32.30;99.90;;;;;;5083254;28;20612;-70
2022/09/16 07:17:00;;;;;;;7.17;2.33;;;-27.10;99.90;;;;;;5083228;28;20182;-67
2022/09/16 07:19:27;;;;;;;3.53;2.10;;;-28.60;99.90;;;;;;5084430;28;20233;-70
2022/09/16 07:21:53;;;;;;;6.63;2.90;;;-34.40;99.90;;;;;;5077781;28;20187;-65
2022/09/16 07:24:19;;;;;;;9.10;2.47;;;-32.30;99.90;;;;;;5077681;28;20262;-71
2022/09/16 07:26:45;;;;;;;3.37;2.10;;;-31.80;99.90;;;;;;5077764;28;20606;-74
2022/09/16 07:29:13;;;;;;;2.63;2.40;;;-28.60;99.90;;;;;;5077337;28;20202;-72
2022/09/16 07:31:40;;;;;;;4.73;2.47;;;-27.20;99.90;;;;;;5077589;28;20324;-72
2022/09/16 07:34:08;;;;;;;4.53;1.93;;;-26.70;99.90;;;;;;5077769;28;20186;-72
2022/09/16 07:36:40;;;;;;;4.27;1.60;;;-32.20;99.90;;;;;;5080484;28;20202;-73
2022/09/16 07:39:07;;;;;;;9.33;2.13;;;-31.40;99.90;;;;;;5086686;28;20178;-72
2022/09/16 07:41:38;;;;;;;4.83;1.73;;;-26.80;99.90;;;;;;5084345;28;20215;-74
2022/09/16 07:44:05;;;;;;;2.57;2.30;;;-28.20;99.90;;;;;;5081447;28;20192;-73
2022/09/16 07:46:34;;;;;;;5.87;1.97;;;-30.00;99.90;;;;;;5081876;28;20393;-73
2022/09/16 07:49:01;;;;;;;4.30;2.27;;;-33.30;99.90;;;;;;5077230;28;20608;-74
2022/09/16 07:51:28;;;;;;;9.87;1.80;;;-29.10;99.90;;;;;;5080004;28;20290;-73
2022/09/16 07:54:16;;;;;;;4.27;2.20;;;-34.00;99.90;;;;;;5076848;28;20214;-74
2022/09/16 07:56:43;;;;;;;7.90;1.97;;;-37.10;99.90;;;;;;5089228;28;20262;-68
2022/09/16 07:59:17;;;;;;;16.37;2.33;;;-34.80;99.90;;;;;;5088964;28;20193;-68
2022/09/16 08:01:43;;;;;;;6.10;1.23;;;-37.30;99.90;;;;;;5084017;28;21501;-69
2022/09/16 08:04:08;;;;;;;2.73;1.87;;;-37.50;99.90;;;;;;5080935;28;20220;-73
2022/09/16 08:06:37;;;;;;;6.00;1.13;;;-40.00;99.90;;;;;;5077050;28;20193;-75
2022/09/16 08:09:03;;;;;;;2.13;1.00;;;-40.00;99.90;;;;;;5076792;28;20585;-70
2022/09/16 08:11:30;;;;;;;3.87;1.43;;;-40.00;99.90;;;;;;5081756;28;20218;-68
2022/09/16 08:13:58;;;;;;;3.73;1.97;;;-40.00;99.90;;;;;;5076703;28;20179;-73
2022/09/16 08:16:24;;;;;;;10.57;1.97;;;-40.00;99.90;;;;;;5082453;28;20171;-73
2022/09/16 08:18:53;;;;;;;4.97;1.00;;;-40.00;99.90;;;;;;5080642;28;20555;-75
2022/09/16 08:21:22;;;;;;;4.87;1.53;;;-40.00;99.90;;;;;;5076684;28;20190;-68
2022/09/16 08:23:48;;;;;;;8.43;1.50;;;-40.00;99.90;;;;;;5076499;28;20257;-71
2022/09/16 08:26:16;;;;;;;0.60;0.60;;;-40.00;99.90;;;;;;5082838;28;20190;-78
2022/09/16 08:28:43;;;;;;;3.03;1.00;;;-40.00;99.90;;;;;;5083193;28;20190;-74
2022/09/16 08:31:10;;;;;;;4.63;1.50;;;-40.00;99.90;;;;;;5079240;28;20214;-74
2022/09/16 08:33:38;;;;;;;11.23;1.90;;;-40.00;99.90;;;;;;5083293;28;20190;-71
2022/09/16 08:36:26;;;;;;;3.30;1.60;;;-39.00;99.90;;;;;;5086236;28;20193;-77
2022/09/16 08:38:55;;;;;;;2.73;0.90;;;-37.50;99.90;;;;;;5079688;28;20280;-72
2022/09/16 08:42:09;;;;;;;4.63;1.27;;;-40.00;99.90;;;;;;5080299;28;20187;-74
2022/09/16 08:44:35;;;;;;;4.73;1.47;;;-40.00;99.90;;;;;;5075674;28;20234;-69
2022/09/16 08:47:05;;;;;;;6.60;1.27;;;-39.30;99.90;;;;;;5075160;28;20267;-73
2022/09/16 08:49:41;;;;;;;7.27;1.33;;;-38.00;99.90;;;;;;5076078;28;20211;-74
2022/09/16 08:52:31;;;;;;;5.17;1.63;;;-38.90;99.90;;;;;;5081768;28;20202;-74
2022/09/16 08:55:22;;;;;;;14.03;1.60;;;-36.70;99.90;;;;;;5075462;28;20180;-70
2022/09/16 08:58:09;;;;;;;7.67;1.57;;;-40.00;99.90;;;;;;5075749;28;20183;-70
2022/09/16 09:00:36;;;;;;;2.70;1.13;;;-40.00;99.90;;;;;;5075530;28;20666;-68
2022/09/16 09:03:24;;;;;;;6.33;2.03;;;-34.90;99.90;;;;;;5075760;28;20495;-74
2022/09/16 09:05:55;;;;;;;9.27;1.70;;;-40.00;99.90;;;;;;5075833;28;20201;-70
2022/09/16 09:08:44;;;;;;;6.47;1.90;;;-40.00;99.90;;;;;;5080389;28;20223;-72
2022/09/16 09:11:16;;;;;;;3.23;1.37;;;-40.00;99.90;;;;;;5085674;28;20322;-76
2022/09/16 09:13:54;;;;;;;3.07;1.43;;;-40.00;99.90;;;;;;5081429;28;20190;-75
2022/09/16 09:16:46;;;;;;;4.57;1.23;;;-40.00;99.90;;;;;;5094765;28;20240;-73
2022/09/16 09:19:42;;;;;;;4.93;2.30;;;-40.00;99.90;;;;;;5081641;28;20183;-75
2022/09/16 09:22:36;;;;;;;3.50;2.13;;;-40.00;99.90;;;;;;5075589;28;20183;-74
2022/09/16 09:25:33;;;;;;;3.43;2.57;;;-38.50;99.90;;;;;;5088498;28;20625;-71
2022/09/16 09:28:07;;;;;;;9.17;1.63;;;-34.10;99.90;;;;;;5085376;28;20179;-71
2022/09/16 09:30:36;;;;;;;6.20;2.23;;;-40.00;99.90;;;;;;5082829;28;20292;-76
2022/09/16 09:33:46;;;;;;;7.50;2.40;;;-40.00;99.90;;;;;;5080808;28;20281;-68
2022/09/16 09:36:12;;;;;;;6.10;1.87;;;-40.00;99.90;;;;;;5059852;28;20278;-69
2022/09/16 09:39:11;;;;;;;6.50;2.37;;;-40.00;99.90;;;;;;5073957;28;20557;-71
2022/09/16 09:41:45;;;;;;;5.33;1.33;;;-40.00;99.90;;;;;;5075075;28;20219;-70
2022/09/16 09:44:29;;;;;;;2.60;1.37;;;-40.00;99.90;;;;;;5082797;28;20214;-73
2022/09/16 09:47:00;;;;;;;6.03;1.40;;;-40.00;99.90;;;;;;5077465;28;20467;-73
2022/09/16 09:49:32;;;;;;;9.47;1.27;;;-40.00;99.90;;;;;;5076302;28;20609;-71
2022/09/16 09:52:09;;;;;;;3.40;1.43;;;-40.00;99.90;;;;;;5075907;28;20299;-76
2022/09/16 09:54:36;;;;;;;1.70;1.47;;;-40.00;99.90;;;;;;5077253;28;20202;-73
2022/09/16 09:57:13;;;;;;;6.70;1.47;;;-40.00;99.90;;;;;;5078844;28;20261;-76
2022/09/16 09:59:45;;;;;;;18.00;2.33;;;-40.00;99.90;;;;;;5079328;28;20196;-73
2022/09/16 10:02:17;;;;;;;10.87;2.57;;;-40.00;99.90;;;;;;5075017;28;20256;-75
2022/09/16 10:04:43;;;;;;;5.13;1.67;;;-40.00;99.90;;;;;;5080754;28;20590;-76
2022/09/16 10:07:14;;;;;;;4.33;2.20;;;-40.00;99.90;;;;;;5074721;28;20183;-71
2022/09/16 10:09:53;;;;;;;3.20;1.07;;;-40.00;99.90;;;;;;5081503;28;20217;-70
2022/09/16 10:12:30;;;;;;;6.40;1.30;;;-40.00;99.90;;;;;;5080604;28;20182;-69
2022/09/16 10:14:56;;;;;;;1.27;0.87;;;-40.00;99.90;;;;;;5080719;28;20183;-69
2022/09/16 10:17:23;;;;;;;1.73;1.33;;;-40.00;99.90;;;;;;5077649;28;20893;-74
2022/09/16 10:19:54;;;;;;;4.23;2.03;;;-40.00;99.90;;;;;;5074934;28;20212;-72
2022/09/16 10:22:29;;;;;;;3.63;1.90;;;-40.00;99.90;;;;;;5079754;28;20182;-67
2022/09/16 10:25:05;;;;;;;0.80;0.80;;;-40.00;99.90;;;;;;5074313;28;20464;-69
2022/09/16 10:27:37;;;;;;;2.73;1.37;;;-40.00;99.90;;;;;;5074730;28;20194;-68
2022/09/16 10:30:16;;;;;;;2.17;1.30;;;-40.00;99.90;;;;;;5074514;28;20591;-68
2022/09/16 10:33:02;;;;;;;3.97;1.17;;;-40.00;99.90;;;;;;5081365;28;20240;-66
2022/09/16 10:35:30;;;;;;;8.70;2.07;;;-40.00;99.90;;;;;;5074551;28;20179;-73
2022/09/16 10:38:08;;;;;;;5.90;1.07;;;-40.00;99.90;;;;;;5074039;28;20228;-69
2022/09/16 10:40:35;;;;;;;5.17;1.53;;;-39.80;99.90;;;;;;5075033;28;20190;-67
2022/09/16 10:43:04;;;;;;;18.50;2.90;;;-34.60;99.90;;;;;;5074496;28;20207;-71
2022/09/16 10:45:36;;;;;;;7.77;1.97;;;-33.40;99.90;;;;;;5074769;28;20207;-75
2022/09/16 10:48:10;;;;;;;2.90;1.37;;;-39.30;99.90;;;;;;5073662;28;20590;-72
2022/09/16 10:50:36;;;;;;;4.03;1.63;;;-36.50;99.90;;;;;;5082790;28;20206;-71
2022/09/16 10:53:02;;;;;;;7.70;2.93;;;-40.00;99.90;;;;;;5080430;28;20506;-72
2022/09/16 10:55:35;;;;;;;2.77;1.60;;;-40.00;99.90;;;;;;5080220;28;20184;-68
2022/09/16 10:58:13;;;;;;;9.97;2.60;;;-40.00;99.90;;;;;;5077710;28;20600;-72
2022/09/16 11:00:51;;;;;;;2.53;1.67;;;-40.00;99.90;;;;;;5074406;28;20608;-76
2022/09/16 11:04:05;;;;;;;5.20;2.43;;;-40.00;99.90;;;;;;5058426;28;20281;-73
2022/09/16 11:07:05;;;;;;;3.43;2.43;;;-40.00;99.90;;;;;;5041676;28;20612;-68
2022/09/16 11:09:50;;;;;;;4.10;2.57;;;-40.00;99.90;;;;;;5080148;28;20197;-72
2022/09/16 11:12:43;;;;;;;4.67;2.43;;;-40.00;99.90;;;;;;5084473;28;20186;-71
2022/09/16 11:15:23;;;;;;;7.53;2.00;;;-40.00;99.90;;;;;;5081961;28;20194;-76
2022/09/16 11:18:24;;;;;;;5.53;2.73;;;-40.00;99.90;;;;;;5078040;28;20186;-72
2022/09/16 11:21:19;;;;;;;2.93;2.30;;;-40.00;99.90;;;;;;5084430;28;20497;-70
2022/09/16 11:24:15;;;;;;;2.77;1.73;;;-40.00;99.90;;;;;;5081063;28;20181;-72
2022/09/16 11:26:55;;;;;;;4.40;1.87;;;-40.00;99.90;;;;;;5082076;28;20891;-70
2022/09/16 11:30:01;;;;;;;8.30;1.80;;;-40.00;99.90;;;;;;5077630;28;20477;-67
2022/09/16 11:32:40;;;;;;;4.20;2.00;;;-39.00;99.90;;;;;;5077342;28;20269;-73
2022/09/16 11:35:31;;;;;;;3.90;1.50;;;-40.00;99.90;;;;;;5092720;28;20221;-71
2022/09/16 11:38:23;;;;;;;2.50;1.67;;;-40.00;99.90;;;;;;5090099;28;20179;-72
2022/09/16 11:41:00;;;;;;;1.30;1.13;;;-35.60;99.90;;;;;;5078143;28;20218;-72
2022/09/16 11:43:56;;;;;;;2.70;1.23;;;-37.70;99.90;;;;;;5081391;28;20245;-73
2022/09/16 11:46:56;;;;;;;7.27;1.43;;;-38.90;99.90;;;;;;5078918;28;20282;-70
2022/09/16 11:49:24;;;;;;;5.20;1.47;;;-38.60;99.90;;;;;;5076466;28;20193;-73
2022/09/16 11:52:00;;;;;;;2.80;1.30;;;-40.00;99.90;;;;;;5081712;28;20277;-70
2022/09/16 11:54:54;;;;;;;3.33;1.70;;;-40.00;99.90;;;;;;5081035;28;20180;-74
2022/09/16 11:57:26;;;;;;;6.97;1.70;;;-39.30;99.90;;;;;;5077989;28;20177;-72
2022/09/16 11:59:59;;;;;;;4.37;2.00;;;-40.00;99.90;;;;;;5083019;28;20312;-75
2022/09/16 12:02:41;;;;;;;3.80;1.87;;;-40.00;99.90;;;;;;5077368;28;20286;-73
2022/09/16 12:05:13;;;;;;;4.37;1.30;;;-40.00;99.90;;;;;;5076817;28;20214;-71
2022/09/16 12:07:47;;;;;;;5.57;1.60;;;-40.00;99.90;;;;;;5082772;28;20185;-71
2022/09/16 12:10:27;;;;;;;6.53;1.97;;;-40.00;99.90;;;;;;5082098;28;20267;-69
2022/09/16 12:13:07;;;;;;;6.50;2.13;;;-38.70;99.90;;;;;;5081232;28;20185;-72
2022/09/16 12:15:47;;;;;;;2.60;1.47;;;-40.00;99.90;;;;;;5081393;28;20334;-72
2022/09/16 12:18:45;;;;;;;3.43;1.27;;;-35.30;99.90;;;;;;5077128;28;20183;-72
2022/09/16 12:21:24;;;;;;;3.87;1.30;;;-40.00;99.90;;;;;;5071504;28;20213;-73
2022/09/16 12:23:59;;;;;;;4.37;1.80;;;-40.00;99.90;;;;;;5080514;28;20175;-70
2022/09/16 12:26:43;;;;;;;3.43;1.20;;;-40.00;99.90;;;;;;5077210;28;20314;-71
2022/09/16 12:29:09;;;;;;;4.93;1.73;;;-40.00;99.90;;;;;;5082993;28;20186;-71
2022/09/16 12:31:36;;;;;;;6.40;1.60;;;-40.00;99.90;;;;;;5083620;28;20720;-70
2022/09/16 12:34:10;;;;;;;10.00;2.57;;;-40.00;99.90;;;;;;5083151;28;20555;-69
2022/09/16 12:36:41;;;;;;;3.00;1.43;;;-40.00;99.90;;;;;;5081764;28;20184;-69
2022/09/16 12:39:11;;;;;;;2.73;1.70;;;-40.00;99.90;;;;;;5080224;28;20186;-69
2022/09/16 12:41:58;;;;;;;3.60;1.80;;;-40.00;99.90;;;;;;5076403;28;20203;-73
2022/09/16 12:44:42;;;;;;;2.87;1.80;;;-40.00;99.90;;;;;;5081390;28;20185;-72
2022/09/16 12:47:34;;;;;;;2.30;1.73;;;-40.00;99.90;;;;;;5081588;28;20178;-72
2022/09/16 12:50:17;;;;;;;3.83;1.87;;;-40.00;99.90;;;;;;5079690;28;20206;-72
2022/09/16 12:53:20;;;;;;;1.80;1.47;;;-40.00;99.90;;;;;;5082604;28;20210;-70
2022/09/16 12:56:19;;;;;;;3.80;1.20;;;-40.00;99.90;;;;;;5068724;28;20213;-69
2022/09/16 12:59:01;;;;;;;1.77;1.37;;;-40.00;99.90;;;;;;5076054;28;20605;-74
2022/09/16 13:01:34;;;;;;;11.20;1.47;;;-40.00;99.90;;;;;;5082827;28;20214;-70
2022/09/16 13:04:22;;;;;;;1.07;1.00;;;-40.00;99.90;;;;;;5086821;28;20197;-70
2022/09/16 13:06:51;;;;;;;2.50;1.30;;;-40.00;99.90;;;;;;5080322;28;20581;-73
2022/09/16 13:09:24;;;;;;;5.90;1.40;;;-40.00;99.90;;;;;;5076257;28;20175;-69